Time;durP1;ratioP1;P1;durP2;ratioP2;P2;SDS_P1;SDS_P2;PMS_P1;PMS_P2;Temp;Humidity;BMP_temperature;BMP_pressure;BME280_temperature;BME280_humidity;BME280_pressure;Samples;Min_cycle;Max_cycle;Signal;HPM_P1;HPM_P2
2022/09/18 00:01:24;;;;;;;0.80;0.60;;;24.40;96.00;;;;;;5116099;28;20439;-81
2022/09/18 00:03:51;;;;;;;0.90;0.80;;;24.40;96.00;;;;;;5116733;28;20455;-81
2022/09/18 00:06:21;;;;;;;0.90;0.70;;;24.40;95.90;;;;;;5116243;28;20795;-81
2022/09/18 00:08:51;;;;;;;1.00;0.90;;;24.40;95.90;;;;;;5116082;28;20441;-81
2022/09/18 00:11:19;;;;;;;0.80;0.60;;;24.40;95.70;;;;;;5116328;28;20435;-81
2022/09/18 00:13:47;;;;;;;0.80;0.70;;;24.40;95.80;;;;;;5116093;28;20443;-87
2022/09/18 00:16:15;;;;;;;0.90;0.77;;;24.40;95.90;;;;;;5116178;28;20475;-81
2022/09/18 00:18:43;;;;;;;1.20;0.90;;;24.40;95.80;;;;;;5115570;28;20903;-81
2022/09/18 00:21:12;;;;;;;0.80;0.70;;;24.40;95.90;;;;;;5116200;28;20535;-81
2022/09/18 00:23:39;;;;;;;0.90;0.80;;;24.40;95.80;;;;;;5116033;28;20447;-81
2022/09/18 00:26:07;;;;;;;0.80;0.70;;;24.40;95.70;;;;;;5115907;28;20529;-81
2022/09/18 00:28:35;;;;;;;1.00;0.60;;;24.40;95.90;;;;;;5115822;28;20785;-81
2022/09/18 00:31:09;;;;;;;0.77;0.60;;;24.40;95.70;;;;;;5115854;28;20502;-81
2022/09/18 00:33:36;;;;;;;0.90;0.70;;;24.40;96.00;;;;;;5115777;28;20441;-81
2022/09/18 00:36:05;;;;;;;0.80;0.70;;;24.40;95.80;;;;;;5115775;28;20561;-81
2022/09/18 00:38:32;;;;;;;0.80;0.60;;;24.40;96.00;;;;;;5115622;28;21107;-87
2022/09/18 00:41:00;;;;;;;0.87;0.77;;;24.40;96.00;;;;;;5115543;28;20457;-86
2022/09/18 00:43:31;;;;;;;0.90;0.70;;;24.40;95.90;;;;;;5115284;28;20935;-81
2022/09/18 00:46:00;;;;;;;0.80;0.60;;;24.40;96.00;;;;;;5116001;28;20847;-81
2022/09/18 00:48:40;;;;;;;0.90;0.70;;;24.40;95.80;;;;;;5115560;28;20431;-81
2022/09/18 00:51:07;;;;;;;0.93;0.70;;;24.40;95.80;;;;;;5115396;28;20442;-81
2022/09/18 00:53:35;;;;;;;0.80;0.70;;;24.40;96.00;;;;;;5115414;28;20435;-81
2022/09/18 00:56:05;;;;;;;0.80;0.70;;;24.40;95.90;;;;;;5114703;28;20449;-81
2022/09/18 00:58:31;;;;;;;0.70;0.60;;;24.40;96.00;;;;;;5115147;28;20539;-82
2022/09/18 01:01:00;;;;;;;0.90;0.70;;;24.40;96.10;;;;;;5115029;28;20955;-87
2022/09/18 01:03:29;;;;;;;0.80;0.60;;;24.40;96.10;;;;;;5115379;28;20447;-81
2022/09/18 01:06:08;;;;;;;0.80;0.70;;;24.40;95.90;;;;;;5115034;28;20443;-81
2022/09/18 01:08:42;;;;;;;0.77;0.63;;;24.40;95.80;;;;;;5115395;28;20453;-82
2022/09/18 01:11:20;;;;;;;0.70;0.60;;;24.40;95.70;;;;;;5115188;28;20443;-82
2022/09/18 01:13:58;;;;;;;0.80;0.60;;;24.40;95.80;;;;;;5115204;28;20492;-81
2022/09/18 01:16:32;;;;;;;0.90;0.70;;;24.40;95.90;;;;;;5114961;28;20538;-81
2022/09/18 01:19:15;;;;;;;0.90;0.80;;;24.40;96.20;;;;;;5114678;28;20470;-83
2022/09/18 01:21:46;;;;;;;1.07;0.70;;;24.40;95.90;;;;;;5114893;28;20430;-81
2022/09/18 01:24:31;;;;;;;0.80;0.70;;;24.40;95.90;;;;;;5115022;28;20435;-81
2022/09/18 01:27:02;;;;;;;0.90;0.70;;;24.40;96.30;;;;;;5114926;28;20825;-82
2022/09/18 01:29:48;;;;;;;0.90;0.70;;;24.40;96.30;;;;;;5114756;28;20463;-81
2022/09/18 01:32:20;;;;;;;0.80;0.70;;;24.40;95.80;;;;;;5114682;28;20475;-81
2022/09/18 01:34:52;;;;;;;0.80;0.70;;;24.40;96.00;;;;;;5115020;28;20500;-81
2022/09/18 01:37:28;;;;;;;0.80;0.70;;;24.40;96.10;;;;;;5114443;28;20478;-81
2022/09/18 01:39:59;;;;;;;0.83;0.70;;;24.40;96.40;;;;;;5114650;28;20441;-81
2022/09/18 01:42:29;;;;;;;0.73;0.60;;;24.30;96.50;;;;;;5114523;28;20431;-81
2022/09/18 01:45:01;;;;;;;0.87;0.70;;;24.40;96.50;;;;;;5114548;28;20442;-81
2022/09/18 01:47:35;;;;;;;0.80;0.73;;;24.40;96.60;;;;;;5114296;28;20431;-81
2022/09/18 01:50:04;;;;;;;0.80;0.70;;;24.40;96.50;;;;;;5114511;28;20475;-83
2022/09/18 01:52:35;;;;;;;0.80;0.70;;;24.40;96.40;;;;;;5114160;28;20439;-84
2022/09/18 01:55:03;;;;;;;0.90;0.67;;;24.40;96.30;;;;;;5114155;28;20473;-87
2022/09/18 01:57:38;;;;;;;0.80;0.67;;;24.40;96.80;;;;;;5114206;28;20549;-81
2022/09/18 02:00:09;;;;;;;1.07;0.70;;;24.40;96.30;;;;;;5114479;28;20498;-81
2022/09/18 02:02:40;;;;;;;1.03;0.80;;;24.40;96.50;;;;;;5114010;28;20867;-81
2022/09/18 02:05:11;;;;;;;0.80;0.70;;;24.40;96.80;;;;;;5114322;28;20917;-81
2022/09/18 02:07:47;;;;;;;1.00;0.77;;;24.40;96.80;;;;;;5113297;28;20439;-81
2022/09/18 02:10:14;;;;;;;0.80;0.70;;;24.40;96.40;;;;;;5114202;28;21005;-81
2022/09/18 02:12:43;;;;;;;0.90;0.70;;;24.40;96.40;;;;;;5114057;28;20431;-81
2022/09/18 02:15:14;;;;;;;1.00;0.70;;;24.40;96.90;;;;;;5113996;28;20990;-81
2022/09/18 02:17:46;;;;;;;1.20;0.70;;;24.40;96.70;;;;;;5113868;28;20518;-81
2022/09/18 02:20:19;;;;;;;0.80;0.60;;;24.40;96.60;;;;;;5114059;28;20495;-82
2022/09/18 02:22:50;;;;;;;0.90;0.80;;;24.30;96.70;;;;;;5114116;28;20783;-86
2022/09/18 02:25:20;;;;;;;0.80;0.70;;;24.30;96.60;;;;;;5113758;28;20449;-81
2022/09/18 02:27:49;;;;;;;0.90;0.80;;;24.30;96.50;;;;;;5113801;28;20441;-81
2022/09/18 02:30:18;;;;;;;0.80;0.70;;;24.30;96.50;;;;;;5113863;28;20450;-81
2022/09/18 02:32:45;;;;;;;0.90;0.70;;;24.40;97.00;;;;;;5113606;28;20445;-81
2022/09/18 02:35:13;;;;;;;0.90;0.70;;;24.30;96.90;;;;;;5113926;28;20479;-87
2022/09/18 02:37:51;;;;;;;0.90;0.70;;;24.30;96.70;;;;;;5113870;28;20485;-81
2022/09/18 02:40:32;;;;;;;1.00;0.90;;;24.40;96.70;;;;;;5113819;28;20445;-81
2022/09/18 02:43:13;;;;;;;1.00;0.80;;;24.40;96.60;;;;;;5113972;28;20868;-84
2022/09/18 02:45:50;;;;;;;0.80;0.63;;;24.30;97.50;;;;;;5113685;28;20434;-81
2022/09/18 02:48:30;;;;;;;0.80;0.60;;;24.30;97.70;;;;;;5113533;28;20451;-81
2022/09/18 02:51:07;;;;;;;0.90;0.70;;;24.30;97.50;;;;;;5113692;28;20775;-81
2022/09/18 02:53:40;;;;;;;1.00;0.70;;;24.30;97.50;;;;;;5113346;28;20964;-87
2022/09/18 02:56:11;;;;;;;0.80;0.67;;;24.40;97.60;;;;;;5113608;28;20453;-81
2022/09/18 02:58:44;;;;;;;0.70;0.63;;;24.30;97.70;;;;;;5113353;28;20482;-81
2022/09/18 03:01:14;;;;;;;0.80;0.60;;;24.30;97.80;;;;;;5113360;28;20439;-81
2022/09/18 03:03:41;;;;;;;0.80;0.60;;;24.40;97.90;;;;;;5113619;28;20437;-81
2022/09/18 03:06:09;;;;;;;0.80;0.73;;;24.30;98.00;;;;;;5113519;28;20825;-80
2022/09/18 03:08:36;;;;;;;0.70;0.60;;;24.30;97.90;;;;;;5113618;28;20531;-82
2022/09/18 03:11:03;;;;;;;0.90;0.73;;;24.30;98.00;;;;;;5113390;28;20435;-82
2022/09/18 03:13:30;;;;;;;0.80;0.70;;;24.30;97.90;;;;;;5113665;28;20432;-86
2022/09/18 03:15:57;;;;;;;0.80;0.67;;;24.30;97.80;;;;;;5113680;28;20519;-81
2022/09/18 03:18:25;;;;;;;0.80;0.70;;;24.30;97.70;;;;;;5114097;28;20474;-81
2022/09/18 03:20:52;;;;;;;1.30;0.83;;;24.30;97.80;;;;;;5117182;28;20909;-81
2022/09/18 03:23:19;;;;;;;0.80;0.70;;;24.30;97.80;;;;;;5117215;28;20791;-81
2022/09/18 03:25:48;;;;;;;0.80;0.67;;;24.30;98.10;;;;;;5117088;28;21031;-81
2022/09/18 03:28:15;;;;;;;0.90;0.70;;;24.30;97.50;;;;;;5117234;28;20763;-85
2022/09/18 03:30:44;;;;;;;0.97;0.87;;;24.30;97.80;;;;;;5117126;28;20538;-81
2022/09/18 03:33:11;;;;;;;0.90;0.60;;;24.30;97.80;;;;;;5117057;28;20545;-81
2022/09/18 03:35:39;;;;;;;0.93;0.83;;;24.30;97.70;;;;;;5116967;28;21040;-81
2022/09/18 03:38:06;;;;;;;0.70;0.60;;;24.40;97.60;;;;;;5116784;28;20490;-81
2022/09/18 03:40:32;;;;;;;0.90;0.83;;;24.30;98.10;;;;;;5117058;28;20534;-82
2022/09/18 03:42:59;;;;;;;0.90;0.70;;;24.30;97.90;;;;;;5117035;28;20934;-86
2022/09/18 03:45:26;;;;;;;0.90;0.80;;;24.30;97.70;;;;;;5116517;28;20479;-81
2022/09/18 03:47:53;;;;;;;0.80;0.60;;;24.30;90.70;;;;;;5116715;28;20454;-81
2022/09/18 03:50:20;;;;;;;0.80;0.70;;;24.30;88.60;;;;;;5116638;28;20439;-81
2022/09/18 03:52:48;;;;;;;0.80;0.63;;;24.30;87.70;;;;;;5116657;28;20437;-81
2022/09/18 03:55:15;;;;;;;0.80;0.60;;;24.30;85.90;;;;;;5116447;28;20439;-81
2022/09/18 03:57:42;;;;;;;0.90;0.80;;;24.30;85.20;;;;;;5116314;28;20996;-81
2022/09/18 04:00:10;;;;;;;0.80;0.70;;;24.30;84.40;;;;;;5116329;28;20545;-81
2022/09/18 04:02:37;;;;;;;0.90;0.70;;;24.30;83.90;;;;;;5116325;28;20532;-81
2022/09/18 04:05:04;;;;;;;0.77;0.63;;;24.30;84.00;;;;;;5116515;28;20449;-81
2022/09/18 04:07:31;;;;;;;0.80;0.67;;;24.30;83.80;;;;;;5116214;28;20933;-86
2022/09/18 04:09:59;;;;;;;0.87;0.70;;;24.30;83.60;;;;;;5116534;28;20939;-81
2022/09/18 04:12:26;;;;;;;1.00;0.70;;;24.30;84.10;;;;;;5116309;28;20443;-81
2022/09/18 04:14:55;;;;;;;0.90;0.70;;;24.30;84.30;;;;;;5116521;28;20518;-82
2022/09/18 04:17:22;;;;;;;0.83;0.70;;;24.30;84.10;;;;;;5116272;28;20462;-81
2022/09/18 04:19:49;;;;;;;1.00;0.80;;;24.30;84.10;;;;;;5115797;28;20559;-81
2022/09/18 04:22:16;;;;;;;1.00;0.87;;;24.20;83.80;;;;;;5115955;28;20534;-81
2022/09/18 04:24:44;;;;;;;0.90;0.70;;;24.20;84.80;;;;;;5116123;28;20839;-81
2022/09/18 04:27:13;;;;;;;0.90;0.80;;;24.30;85.20;;;;;;5115971;28;20940;-81
2022/09/18 04:29:40;;;;;;;1.00;0.90;;;24.30;85.20;;;;;;5114973;28;20459;-81
2022/09/18 04:32:07;;;;;;;0.90;0.80;;;24.30;85.80;;;;;;5115982;28;20437;-81
2022/09/18 04:34:34;;;;;;;0.80;0.70;;;24.30;86.70;;;;;;5116045;28;20437;-82
2022/09/18 04:37:01;;;;;;;1.00;0.80;;;24.30;85.90;;;;;;5113919;28;20445;-87
2022/09/18 04:39:28;;;;;;;0.70;0.60;;;24.20;86.50;;;;;;5115433;28;20589;-81
2022/09/18 04:41:55;;;;;;;1.00;0.70;;;24.30;87.10;;;;;;5115613;28;20439;-81
2022/09/18 04:44:23;;;;;;;0.90;0.60;;;24.30;87.30;;;;;;5115618;28;20535;-81
2022/09/18 04:46:50;;;;;;;0.80;0.70;;;24.30;86.90;;;;;;5115626;28;21016;-81
2022/09/18 04:49:17;;;;;;;0.70;0.60;;;24.20;86.10;;;;;;5115538;28;20628;-81
2022/09/18 04:51:44;;;;;;;0.80;0.70;;;24.20;86.90;;;;;;5115745;28;20439;-81
2022/09/18 04:54:11;;;;;;;1.00;0.90;;;24.30;86.90;;;;;;5115574;28;20441;-81
2022/09/18 04:56:38;;;;;;;0.93;0.83;;;24.20;87.60;;;;;;5115239;28;20526;-81
2022/09/18 04:59:05;;;;;;;0.80;0.63;;;24.20;88.00;;;;;;5115124;28;20490;-81
2022/09/18 05:01:33;;;;;;;0.80;0.70;;;24.20;89.00;;;;;;5115099;28;20446;-85
2022/09/18 05:04:00;;;;;;;0.80;0.70;;;24.30;89.70;;;;;;5115477;28;20964;-82
2022/09/18 05:06:27;;;;;;;0.70;0.60;;;24.20;90.20;;;;;;5115341;28;20435;-82
2022/09/18 05:08:54;;;;;;;0.80;0.60;;;24.20;90.10;;;;;;5115200;28;20450;-81
2022/09/18 05:11:21;;;;;;;0.80;0.60;;;24.20;89.50;;;;;;5115168;28;20538;-81
2022/09/18 05:13:48;;;;;;;0.80;0.70;;;24.30;90.20;;;;;;5115121;28;20437;-81
2022/09/18 05:16:15;;;;;;;0.80;0.60;;;24.20;88.10;;;;;;5115107;28;20522;-81
2022/09/18 05:18:43;;;;;;;0.70;0.60;;;24.20;89.40;;;;;;5114599;28;20490;-81
2022/09/18 05:21:10;;;;;;;1.00;0.80;;;24.20;90.10;;;;;;5114793;28;20531;-81
2022/09/18 05:23:37;;;;;;;0.80;0.70;;;24.20;89.20;;;;;;5115153;28;20442;-81
2022/09/18 05:26:04;;;;;;;0.73;0.60;;;24.20;88.80;;;;;;5114953;28;20554;-81
2022/09/18 05:28:31;;;;;;;0.80;0.70;;;24.20;88.60;;;;;;5114568;28;20542;-85
2022/09/18 05:30:59;;;;;;;0.80;0.70;;;24.20;89.50;;;;;;5114487;28;20534;-81
2022/09/18 05:33:26;;;;;;;0.83;0.73;;;24.20;88.60;;;;;;5114759;28;20427;-81
2022/09/18 05:35:56;;;;;;;0.80;0.70;;;24.20;88.30;;;;;;5114628;28;20439;-84
2022/09/18 05:38:22;;;;;;;0.90;0.80;;;24.20;88.40;;;;;;5114601;28;20478;-81
2022/09/18 05:40:49;;;;;;;0.90;0.70;;;24.20;88.60;;;;;;5114521;28;20534;-81
2022/09/18 05:43:17;;;;;;;0.80;0.60;;;24.20;88.70;;;;;;5114652;28;20536;-81
2022/09/18 05:45:44;;;;;;;0.70;0.70;;;24.20;88.90;;;;;;5114287;28;20521;-81
2022/09/18 05:48:12;;;;;;;0.80;0.70;;;24.20;88.90;;;;;;5114342;28;20435;-81
2022/09/18 05:50:39;;;;;;;0.80;0.60;;;24.20;89.60;;;;;;5114331;28;20436;-81
2022/09/18 05:53:10;;;;;;;0.80;0.60;;;24.20;90.10;;;;;;5114511;28;20526;-81
2022/09/18 05:55:37;;;;;;;0.93;0.83;;;24.20;89.30;;;;;;5114376;28;20435;-82
2022/09/18 05:58:06;;;;;;;1.00;0.87;;;24.20;89.20;;;;;;5113859;28;20475;-84
2022/09/18 06:00:35;;;;;;;1.00;0.70;;;24.20;89.20;;;;;;5114302;28;20435;-82
2022/09/18 06:03:03;;;;;;;0.80;0.70;;;24.20;89.00;;;;;;5114096;28;20442;-82
2022/09/18 06:05:33;;;;;;;1.00;0.77;;;24.20;89.70;;;;;;5114133;28;21012;-87
2022/09/18 06:08:00;;;;;;;0.80;0.70;;;24.20;89.60;;;;;;5114056;28;20521;-83
2022/09/18 06:10:29;;;;;;;0.90;0.70;;;24.20;90.00;;;;;;5113967;28;20525;-81
2022/09/18 06:13:01;;;;;;;0.80;0.60;;;24.20;89.40;;;;;;5114060;28;20431;-81
2022/09/18 06:15:28;;;;;;;0.90;0.77;;;24.20;90.40;;;;;;5114122;28;20451;-81
2022/09/18 06:17:55;;;;;;;0.80;0.70;;;24.20;89.20;;;;;;5114011;28;20434;-81
2022/09/18 06:20:21;;;;;;;0.80;0.60;;;24.20;89.50;;;;;;5113745;28;20553;-81
2022/09/18 06:22:48;;;;;;;0.97;0.87;;;24.20;90.10;;;;;;5113692;28;20457;-81
2022/09/18 06:25:20;;;;;;;1.00;0.90;;;24.20;90.70;;;;;;5113822;28;20518;-81
2022/09/18 06:27:52;;;;;;;0.70;0.60;;;24.20;90.70;;;;;;5114017;28;20842;-81
2022/09/18 06:30:19;;;;;;;1.03;0.80;;;24.20;90.60;;;;;;5114012;28;20519;-82
2022/09/18 06:32:46;;;;;;;0.90;0.70;;;24.20;90.40;;;;;;5113979;28;20482;-87
2022/09/18 06:35:12;;;;;;;0.80;0.80;;;24.20;91.90;;;;;;5113805;28;20514;-81
2022/09/18 06:37:39;;;;;;;1.00;0.80;;;24.20;91.80;;;;;;5113757;28;21000;-81
2022/09/18 06:40:07;;;;;;;0.87;0.70;;;24.20;93.00;;;;;;5113682;28;20495;-87
2022/09/18 06:42:33;;;;;;;0.90;0.80;;;24.20;96.40;;;;;;5113738;28;20467;-87
2022/09/18 06:45:01;;;;;;;1.10;0.80;;;24.20;95.60;;;;;;5113818;28;20929;-87
2022/09/18 06:47:28;;;;;;;1.37;1.00;;;24.20;96.90;;;;;;5113685;28;20804;-81
2022/09/18 06:49:55;;;;;;;1.00;0.70;;;24.20;97.00;;;;;;5113686;28;20447;-81
2022/09/18 06:52:22;;;;;;;0.80;0.70;;;24.20;97.50;;;;;;5113753;28;20446;-81
2022/09/18 06:54:49;;;;;;;0.70;0.70;;;24.20;97.40;;;;;;5117629;28;20440;-82
2022/09/18 06:57:16;;;;;;;0.80;0.70;;;24.20;97.60;;;;;;5117710;28;20925;-81
2022/09/18 06:59:42;;;;;;;0.80;0.70;;;24.20;97.40;;;;;;5117838;28;20574;-87
2022/09/18 07:02:13;;;;;;;0.90;0.80;;;24.20;97.50;;;;;;5117800;28;20503;-87
2022/09/18 07:04:40;;;;;;;0.90;0.70;;;24.20;97.20;;;;;;5117446;28;20488;-80
2022/09/18 07:07:07;;;;;;;0.97;0.87;;;24.20;97.40;;;;;;5117468;28;20538;-81
2022/09/18 07:09:34;;;;;;;1.00;0.63;;;24.20;97.40;;;;;;5117370;28;20545;-81
2022/09/18 07:12:01;;;;;;;0.83;0.77;;;24.20;97.40;;;;;;5117312;28;20478;-81
2022/09/18 07:14:28;;;;;;;0.90;0.70;;;24.20;97.60;;;;;;5117537;28;20439;-81
2022/09/18 07:16:55;;;;;;;1.00;0.80;;;24.20;97.60;;;;;;5117460;28;20437;-81
2022/09/18 07:19:23;;;;;;;1.00;0.80;;;24.20;97.60;;;;;;5117015;28;20581;-81
2022/09/18 07:21:52;;;;;;;0.80;0.70;;;24.20;97.80;;;;;;5117130;28;20453;-81
2022/09/18 07:24:18;;;;;;;0.80;0.70;;;24.20;97.60;;;;;;5117269;28;20453;-81
2022/09/18 07:26:45;;;;;;;0.80;0.63;;;24.20;97.50;;;;;;5117369;28;20947;-81
2022/09/18 07:29:12;;;;;;;0.80;0.70;;;24.20;97.60;;;;;;5117240;28;20542;-81
2022/09/18 07:31:39;;;;;;;0.80;0.70;;;24.20;97.30;;;;;;5117171;28;20760;-81
2022/09/18 07:34:07;;;;;;;0.80;0.70;;;24.20;97.50;;;;;;5117241;28;20497;-87
2022/09/18 07:36:35;;;;;;;0.93;0.83;;;24.20;97.70;;;;;;5117020;28;20485;-81
2022/09/18 07:39:02;;;;;;;0.90;0.80;;;24.20;97.80;;;;;;5117001;28;20474;-87
2022/09/18 07:41:28;;;;;;;0.83;0.70;;;24.20;97.50;;;;;;5117036;28;20441;-82
2022/09/18 07:43:55;;;;;;;0.80;0.70;;;24.20;97.40;;;;;;5117105;28;20538;-81
2022/09/18 07:46:22;;;;;;;0.90;0.70;;;24.20;97.40;;;;;;5116795;28;20522;-85
2022/09/18 07:48:49;;;;;;;1.00;0.90;;;24.20;97.50;;;;;;5116816;28;20446;-82
2022/09/18 07:51:16;;;;;;;0.80;0.70;;;24.20;97.60;;;;;;5116939;28;20427;-87
2022/09/18 07:53:44;;;;;;;0.93;0.73;;;24.20;97.60;;;;;;5116885;28;20423;-81
2022/09/18 07:56:12;;;;;;;0.90;0.80;;;24.20;97.80;;;;;;5117071;28;20518;-81
2022/09/18 07:58:39;;;;;;;0.80;0.70;;;24.20;97.50;;;;;;5116530;28;20558;-81
2022/09/18 08:01:06;;;;;;;0.90;0.80;;;24.20;97.40;;;;;;5116437;28;20871;-81
2022/09/18 08:03:34;;;;;;;0.83;0.73;;;24.20;97.40;;;;;;5116632;28;20443;-81
2022/09/18 08:06:00;;;;;;;0.90;0.80;;;24.20;97.60;;;;;;5115392;28;20806;-81
2022/09/18 08:08:28;;;;;;;0.80;0.70;;;24.20;97.70;;;;;;5116030;28;20447;-80
2022/09/18 08:10:57;;;;;;;1.20;0.80;;;24.20;97.70;;;;;;5115982;28;20501;-80
2022/09/18 08:13:23;;;;;;;0.80;0.70;;;24.20;97.60;;;;;;5116091;28;20518;-81
2022/09/18 08:15:50;;;;;;;0.90;0.80;;;24.20;97.70;;;;;;5116243;28;20937;-81
2022/09/18 08:18:17;;;;;;;0.90;0.70;;;24.20;97.70;;;;;;5116014;28;20439;-81
2022/09/18 08:20:44;;;;;;;0.90;0.80;;;24.20;97.70;;;;;;5116255;28;20504;-81
2022/09/18 08:23:11;;;;;;;0.97;0.80;;;24.20;97.70;;;;;;5116146;28;20475;-81
2022/09/18 08:25:38;;;;;;;0.80;0.70;;;24.20;97.60;;;;;;5116299;28;20529;-87
2022/09/18 08:28:07;;;;;;;1.00;0.90;;;24.20;97.70;;;;;;5116134;28;20435;-81
2022/09/18 08:30:34;;;;;;;0.80;0.80;;;24.20;97.50;;;;;;5116169;28;20439;-87
2022/09/18 08:33:03;;;;;;;0.80;0.70;;;24.20;97.60;;;;;;5116107;28;20437;-86
2022/09/18 08:35:30;;;;;;;0.90;0.80;;;24.20;97.40;;;;;;5116146;28;20437;-86
2022/09/18 08:37:58;;;;;;;0.90;0.80;;;24.20;97.40;;;;;;5115671;28;20464;-81
2022/09/18 08:40:40;;;;;;;1.00;0.90;;;24.20;97.60;;;;;;5115556;28;20483;-87
2022/09/18 08:43:16;;;;;;;0.93;0.77;;;24.20;97.20;;;;;;5115851;28;20462;-87
2022/09/18 08:45:54;;;;;;;0.90;0.80;;;24.20;97.20;;;;;;5115774;28;20449;-81
2022/09/18 08:48:26;;;;;;;0.97;0.80;;;24.20;97.00;;;;;;5115480;28;20443;-81
2022/09/18 08:50:59;;;;;;;0.97;0.87;;;24.20;97.40;;;;;;5115678;28;20988;-81
2022/09/18 08:53:32;;;;;;;1.00;0.90;;;24.20;97.30;;;;;;5115626;28;20922;-81
2022/09/18 08:56:01;;;;;;;0.80;0.70;;;24.20;96.90;;;;;;5115632;28;20436;-81
2022/09/18 08:58:33;;;;;;;0.90;0.80;;;24.20;97.20;;;;;;5115185;28;20489;-81
2022/09/18 09:01:06;;;;;;;0.90;0.80;;;24.20;97.60;;;;;;5115397;28;20571;-86
2022/09/18 09:03:42;;;;;;;1.00;0.80;;;24.20;97.20;;;;;;5115395;28;20509;-87
2022/09/18 09:06:24;;;;;;;1.00;0.90;;;24.20;97.10;;;;;;5115449;28;20441;-81
2022/09/18 09:09:11;;;;;;;0.80;0.70;;;24.20;97.20;;;;;;5115118;28;20794;-80
2022/09/18 09:11:47;;;;;;;0.80;0.70;;;24.20;97.20;;;;;;5115044;28;20437;-81
2022/09/18 09:14:28;;;;;;;0.70;0.70;;;24.20;97.30;;;;;;5115235;28;20443;-81
2022/09/18 09:17:04;;;;;;;0.80;0.60;;;24.10;97.30;;;;;;5114578;28;20434;-81
2022/09/18 09:19:40;;;;;;;0.80;0.70;;;24.20;97.20;;;;;;5114730;28;20502;-82
2022/09/18 09:22:16;;;;;;;1.00;0.83;;;24.10;95.90;;;;;;5115464;28;20430;-87
2022/09/18 09:24:55;;;;;;;0.77;0.63;;;24.10;94.60;;;;;;5115084;28;20525;-81
2022/09/18 09:27:26;;;;;;;1.13;0.87;;;24.10;94.50;;;;;;5115297;28;20439;-81
2022/09/18 09:30:01;;;;;;;0.80;0.77;;;24.10;94.40;;;;;;5114746;28;20803;-80
2022/09/18 09:32:33;;;;;;;0.80;0.70;;;24.10;94.20;;;;;;5114651;28;20796;-81
2022/09/18 09:35:14;;;;;;;0.97;0.87;;;24.10;94.10;;;;;;5114735;28;20443;-81
2022/09/18 09:37:44;;;;;;;0.93;0.80;;;24.10;94.50;;;;;;5114720;28;20439;-81
2022/09/18 09:40:16;;;;;;;0.90;0.80;;;24.10;94.30;;;;;;5114659;28;20574;-81
2022/09/18 09:42:49;;;;;;;1.00;0.90;;;24.10;94.10;;;;;;5114453;28;20443;-81
2022/09/18 09:45:24;;;;;;;0.80;0.70;;;24.20;94.40;;;;;;5114676;28;21024;-87
2022/09/18 09:48:01;;;;;;;0.80;0.70;;;24.20;94.40;;;;;;5114970;28;20441;-81
2022/09/18 09:50:43;;;;;;;1.23;0.80;;;24.10;94.00;;;;;;5114537;28;20439;-81
2022/09/18 09:53:12;;;;;;;1.10;0.70;;;24.10;94.10;;;;;;5114641;28;20534;-81
2022/09/18 09:55:49;;;;;;;1.27;0.90;;;24.10;94.10;;;;;;5114243;28;20513;-81
2022/09/18 09:58:29;;;;;;;1.00;0.80;;;24.20;93.60;;;;;;5114396;28;20483;-82
2022/09/18 10:01:06;;;;;;;1.10;0.80;;;24.10;93.90;;;;;;5114137;28;21063;-81
2022/09/18 10:03:44;;;;;;;1.27;0.80;;;24.10;93.80;;;;;;5114412;28;20439;-86
2022/09/18 10:06:27;;;;;;;0.90;0.80;;;24.20;93.80;;;;;;5114241;28;20451;-81
2022/09/18 10:09:01;;;;;;;1.07;0.70;;;24.10;93.80;;;;;;5114315;28;20435;-81
2022/09/18 10:11:28;;;;;;;0.90;0.80;;;24.10;93.90;;;;;;5114237;28;20435;-80
2022/09/18 10:13:59;;;;;;;1.73;0.80;;;24.10;93.90;;;;;;5114255;28;20443;-81
2022/09/18 10:16:33;;;;;;;0.80;0.70;;;24.10;93.80;;;;;;5114043;28;20438;-80
2022/09/18 10:19:00;;;;;;;1.00;0.87;;;24.20;94.10;;;;;;5113722;28;20483;-81
2022/09/18 10:21:33;;;;;;;0.80;0.60;;;24.10;94.00;;;;;;5113761;28;20483;-81
2022/09/18 10:24:13;;;;;;;1.20;0.93;;;24.10;94.20;;;;;;5114017;28;20470;-86
2022/09/18 10:26:46;;;;;;;0.80;0.80;;;24.10;94.10;;;;;;5114098;28;20466;-81
2022/09/18 10:29:12;;;;;;;0.90;0.80;;;24.10;94.30;;;;;;5113297;28;20575;-84
2022/09/18 10:31:51;;;;;;;0.90;0.80;;;24.10;94.50;;;;;;5113969;28;20434;-87
2022/09/18 10:34:39;;;;;;;0.90;0.80;;;24.20;94.40;;;;;;5114011;28;20522;-80
2022/09/18 10:37:13;;;;;;;0.90;0.80;;;24.10;94.20;;;;;;5113801;28;20761;-81
2022/09/18 10:39:48;;;;;;;0.80;0.73;;;24.10;94.00;;;;;;5113467;28;20653;-81
2022/09/18 10:42:18;;;;;;;0.90;0.70;;;24.10;94.10;;;;;;5113919;28;20529;-81
2022/09/18 10:44:50;;;;;;;1.00;0.80;;;24.10;94.20;;;;;;5113700;28;20539;-86
2022/09/18 10:47:23;;;;;;;0.80;0.70;;;24.10;94.10;;;;;;5113611;28;20439;-81
2022/09/18 10:49:53;;;;;;;0.90;0.80;;;24.10;94.10;;;;;;5113692;28;20464;-81
2022/09/18 10:52:33;;;;;;;0.93;0.83;;;24.10;93.90;;;;;;5113518;28;20439;-81
2022/09/18 10:55:13;;;;;;;0.97;0.87;;;24.10;94.10;;;;;;5113672;28;20526;-86
2022/09/18 10:57:43;;;;;;;1.10;0.90;;;24.10;93.80;;;;;;5113659;28;20426;-81
2022/09/18 11:00:35;;;;;;;1.00;0.80;;;24.10;94.00;;;;;;5113565;28;20493;-85
2022/09/18 11:03:20;;;;;;;0.80;0.70;;;24.10;93.90;;;;;;5113418;28;20846;-81
2022/09/18 11:05:51;;;;;;;1.00;0.90;;;24.10;93.60;;;;;;5113553;28;20453;-81
2022/09/18 11:08:20;;;;;;;0.90;0.70;;;24.10;93.90;;;;;;5113497;28;20435;-81
2022/09/18 11:10:49;;;;;;;0.80;0.70;;;24.10;93.90;;;;;;5113517;28;20439;-81
2022/09/18 11:13:22;;;;;;;0.80;0.80;;;24.10;94.10;;;;;;5113458;28;20442;-86
2022/09/18 11:15:53;;;;;;;0.80;0.70;;;24.10;93.90;;;;;;5113509;28;20438;-81
2022/09/18 11:18:22;;;;;;;1.30;0.80;;;24.10;93.90;;;;;;5113195;28;20441;-81
2022/09/18 11:20:50;;;;;;;0.90;0.80;;;24.10;93.90;;;;;;5113517;28;20508;-81
2022/09/18 11:23:26;;;;;;;0.80;0.70;;;24.10;93.90;;;;;;5113416;28;20446;-81
2022/09/18 11:26:10;;;;;;;1.10;0.80;;;24.10;93.90;;;;;;5113519;28;20474;-81
2022/09/18 11:28:37;;;;;;;0.80;0.67;;;24.10;93.70;;;;;;5113401;28;20458;-86
2022/09/18 11:31:09;;;;;;;0.80;0.77;;;24.10;94.00;;;;;;5113303;28;20443;-86
2022/09/18 11:33:42;;;;;;;1.00;0.90;;;24.10;93.90;;;;;;5113510;28;20909;-81
2022/09/18 11:36:12;;;;;;;0.80;0.70;;;24.10;93.70;;;;;;5113369;28;20863;-81
2022/09/18 11:38:41;;;;;;;1.80;0.70;;;24.10;93.80;;;;;;5113340;28;20807;-84
2022/09/18 11:41:10;;;;;;;1.10;0.70;;;24.10;93.80;;;;;;5117000;28;20561;-81
2022/09/18 11:43:39;;;;;;;0.90;0.80;;;24.10;93.90;;;;;;5116857;28;20445;-81
2022/09/18 11:46:17;;;;;;;0.80;0.60;;;24.10;93.80;;;;;;5117001;28;20446;-81
2022/09/18 11:48:52;;;;;;;0.90;0.80;;;24.10;94.00;;;;;;5116843;28;20449;-86
2022/09/18 11:51:25;;;;;;;0.80;0.70;;;24.10;94.50;;;;;;5116527;28;20529;-81
2022/09/18 11:54:00;;;;;;;0.90;0.80;;;24.10;94.00;;;;;;5116672;28;20435;-81
2022/09/18 11:56:33;;;;;;;0.83;0.80;;;24.10;94.10;;;;;;5116720;28;20431;-87
2022/09/18 11:59:05;;;;;;;0.80;0.67;;;24.10;93.90;;;;;;5116473;28;20463;-86
2022/09/18 12:01:38;;;;;;;0.80;0.80;;;24.10;94.00;;;;;;5116188;28;20478;-86
2022/09/18 12:04:14;;;;;;;0.90;0.70;;;24.10;94.20;;;;;;5116459;28;20528;-87
2022/09/18 12:06:50;;;;;;;1.00;0.80;;;24.10;94.10;;;;;;5116570;28;20477;-81
2022/09/18 12:09:23;;;;;;;0.90;0.70;;;24.10;94.10;;;;;;5116423;28;20521;-85
2022/09/18 12:11:57;;;;;;;0.80;0.70;;;24.10;94.10;;;;;;5116540;28;20435;-81
2022/09/18 12:14:33;;;;;;;0.80;0.70;;;24.10;94.10;;;;;;5116371;28;20443;-81
2022/09/18 12:17:04;;;;;;;1.00;0.80;;;24.10;94.20;;;;;;5116561;28;20438;-82
2022/09/18 12:19:37;;;;;;;0.80;0.80;;;24.10;94.10;;;;;;5116181;28;20578;-84
2022/09/18 12:22:11;;;;;;;0.80;0.70;;;24.10;94.00;;;;;;5116100;28;20485;-81
2022/09/18 12:24:38;;;;;;;0.70;0.60;;;24.10;93.80;;;;;;5116375;28;20441;-81
2022/09/18 12:27:20;;;;;;;0.90;0.70;;;24.10;94.10;;;;;;5116099;28;20542;-87
2022/09/18 12:30:03;;;;;;;0.80;0.63;;;24.10;94.00;;;;;;5115795;28;20478;-81
2022/09/18 12:32:47;;;;;;;0.90;0.70;;;24.10;93.50;;;;;;5116312;28;20490;-81
2022/09/18 12:35:24;;;;;;;0.90;0.80;;;24.10;93.30;;;;;;5116081;28;20458;-81
2022/09/18 12:38:03;;;;;;;0.90;0.77;;;24.10;93.80;;;;;;5115832;28;20451;-81
2022/09/18 12:40:52;;;;;;;0.90;0.80;;;24.10;93.90;;;;;;5115514;28;20988;-86
2022/09/18 12:43:40;;;;;;;0.73;0.60;;;24.10;93.90;;;;;;5115837;28;20906;-80
2022/09/18 12:46:25;;;;;;;1.00;0.70;;;24.10;93.80;;;;;;5115927;28;20453;-86
2022/09/18 12:49:06;;;;;;;1.20;0.73;;;24.10;93.70;;;;;;5115836;28;20461;-81
2022/09/18 12:51:43;;;;;;;0.90;0.80;;;24.10;93.80;;;;;;5114672;28;20449;-82
2022/09/18 12:54:27;;;;;;;0.87;0.70;;;24.10;93.80;;;;;;5115758;28;20439;-81
2022/09/18 12:57:06;;;;;;;0.80;0.70;;;24.10;93.80;;;;;;5115515;28;20439;-81
2022/09/18 12:59:53;;;;;;;0.80;0.60;;;24.10;93.70;;;;;;5115120;28;20455;-87
2022/09/18 13:02:36;;;;;;;0.80;0.70;;;24.10;93.50;;;;;;5115458;28;20439;-86
2022/09/18 13:05:07;;;;;;;0.80;0.67;;;24.10;93.40;;;;;;5115436;28;20946;-86
2022/09/18 13:07:40;;;;;;;0.80;0.70;;;24.10;94.00;;;;;;5115302;28;20439;-87